Time;durP1;ratioP1;P1;durP2;ratioP2;P2;SDS_P1;SDS_P2;PMS_P1;PMS_P2;Temp;Humidity;BMP_temperature;BMP_pressure;BME280_temperature;BME280_humidity;BME280_pressure;Samples;Min_cycle;Max_cycle;Signal;HPM_P1;HPM_P2
2023/03/31 00:01:40;;;;;;;6.75;1.50;;;;;;;7.44;100.00;96649.59;5025525;28;20635;-57
2023/03/31 00:04:12;;;;;;;8.32;1.95;;;;;;;7.32;100.00;96647.81;5026279;28;20536;-59
2023/03/31 00:06:41;;;;;;;5.85;1.80;;;;;;;7.23;100.00;96647.41;5025474;28;20128;-58
2023/03/31 00:09:11;;;;;;;7.50;2.20;;;;;;;7.14;100.00;96638.13;5026599;28;20124;-59
2023/03/31 00:11:39;;;;;;;8.30;1.90;;;;;;;7.18;100.00;96641.16;5025098;28;20041;-57
2023/03/31 00:14:07;;;;;;;8.35;1.98;;;;;;;7.12;100.00;96629.50;5026257;28;20045;-59
2023/03/31 00:16:34;;;;;;;6.05;1.75;;;;;;;7.17;100.00;96624.19;5024719;28;20041;-58
2023/03/31 00:19:01;;;;;;;4.95;1.50;;;;;;;7.09;100.00;96628.13;5026375;28;20049;-58
2023/03/31 00:21:32;;;;;;;5.25;1.50;;;;;;;7.09;100.00;96625.44;5026189;28;20083;-58
2023/03/31 00:24:04;;;;;;;6.28;1.67;;;;;;;7.13;100.00;96621.19;5020398;28;20052;-57
2023/03/31 00:26:32;;;;;;;5.90;1.30;;;;;;;7.30;100.00;96617.63;5025596;28;20053;-59
2023/03/31 00:29:00;;;;;;;4.97;1.13;;;;;;;7.39;100.00;96612.63;5020468;28;20038;-60
2023/03/31 00:31:27;;;;;;;5.00;1.40;;;;;;;7.53;100.00;96613.06;5024990;28;20049;-59
2023/03/31 00:33:55;;;;;;;4.03;1.50;;;;;;;7.50;100.00;96602.78;5023631;28;20516;-60
2023/03/31 00:36:28;;;;;;;6.68;1.42;;;;;;;7.72;100.00;96596.56;5024167;28;20060;-58
2023/03/31 00:39:07;;;;;;;6.70;1.40;;;;;;;7.93;100.00;96584.13;5025642;28;20475;-60
2023/03/31 00:41:36;;;;;;;7.05;1.30;;;;;;;8.07;99.42;96579.13;5024254;28;20199;-59
2023/03/31 00:44:09;;;;;;;4.50;1.15;;;;;;;8.06;99.54;96590.97;5025784;28;20045;-59
2023/03/31 00:47:00;;;;;;;5.47;1.40;;;;;;;8.17;98.56;96592.72;5022083;28;20041;-59
2023/03/31 00:49:38;;;;;;;8.07;1.60;;;;;;;8.37;96.63;96593.16;5023585;28;20479;-58
2023/03/31 00:52:22;;;;;;;3.08;1.20;;;;;;;8.58;94.93;96586.06;5023751;28;20095;-59
2023/03/31 00:55:03;;;;;;;6.20;1.20;;;;;;;8.88;92.33;96576.53;5022538;28;20737;-59
2023/03/31 00:57:37;;;;;;;6.95;1.02;;;;;;;9.11;90.59;96567.22;5031104;28;20044;-60
2023/03/31 01:00:13;;;;;;;4.95;1.30;;;;;;;9.23;90.06;96564.31;5020296;28;20113;-60
2023/03/31 01:02:51;;;;;;;8.20;1.63;;;;;;;9.34;88.28;96559.78;5022577;28;20543;-59
2023/03/31 01:05:21;;;;;;;4.53;1.17;;;;;;;9.37;88.42;96553.03;5024689;28;20044;-61
2023/03/31 01:07:50;;;;;;;7.43;1.30;;;;;;;9.42;88.29;96557.63;5023762;28;20179;-59
2023/03/31 01:10:17;;;;;;;4.50;1.38;;;;;;;9.35;88.19;96556.00;5015519;28;21734;-58
2023/03/31 01:12:47;;;;;;;5.25;1.42;;;;;;;9.46;87.78;96550.63;5022407;28;20038;-59
2023/03/31 01:15:14;;;;;;;6.15;1.83;;;;;;;9.54;86.76;96536.59;5023053;28;20077;-60
2023/03/31 01:17:46;;;;;;;6.20;1.20;;;;;;;9.61;86.24;96525.53;5022354;28;20504;-59
2023/03/31 01:20:48;;;;;;;6.10;1.30;;;;;;;9.42;87.94;96530.59;5024632;28;20045;-59
2023/03/31 01:23:46;;;;;;;5.28;1.33;;;;;;;9.18;90.56;96523.78;5020740;28;20068;-59
2023/03/31 01:26:28;;;;;;;3.35;1.10;;;;;;;9.29;90.28;96521.13;5021202;28;20818;-58
2023/03/31 01:29:26;;;;;;;5.93;1.67;;;;;;;9.23;89.86;96513.00;5024163;28;20733;-59
2023/03/31 01:32:02;;;;;;;5.93;1.77;;;;;;;9.17;90.62;96515.91;5018639;28;21872;-59
2023/03/31 01:34:51;;;;;;;6.60;2.50;;;;;;;9.27;89.14;96517.84;5022603;28;20497;-60
2023/03/31 01:37:41;;;;;;;6.88;1.35;;;;;;;8.99;92.35;96518.00;5014460;28;20509;-58
2023/03/31 01:40:31;;;;;;;5.85;1.63;;;;;;;8.84;94.65;96511.47;5019859;28;20596;-62
2023/03/31 01:43:00;;;;;;;6.55;1.23;;;;;;;8.91;94.41;96515.81;5023949;28;20041;-60
2023/03/31 01:46:01;;;;;;;4.07;1.00;;;;;;;9.35;90.69;96515.47;5023162;28;20045;-60
2023/03/31 01:48:46;;;;;;;6.25;1.05;;;;;;;9.67;87.35;96505.56;5020364;28;20041;-59
2023/03/31 01:51:21;;;;;;;5.38;1.50;;;;;;;9.80;87.37;96506.13;5025648;28;20103;-59
2023/03/31 01:53:57;;;;;;;5.03;1.05;;;;;;;9.89;83.73;96523.44;5024388;28;20037;-59
2023/03/31 01:56:33;;;;;;;8.40;1.52;;;;;;;9.96;84.28;96504.25;5023850;28;20044;-58
2023/03/31 01:59:12;;;;;;;6.88;1.05;;;;;;;9.85;85.61;96501.50;5017256;28;20615;-59
2023/03/31 02:01:58;;;;;;;5.07;1.08;;;;;;;9.78;85.84;96492.88;5022935;28;20064;-60
2023/03/31 02:04:37;;;;;;;6.00;1.10;;;;;;;9.62;88.14;96490.13;5023580;28;20516;-60
2023/03/31 02:07:12;;;;;;;4.38;1.40;;;;;;;9.55;88.12;96486.88;5019357;28;20095;-60
2023/03/31 02:09:43;;;;;;;5.60;1.17;;;;;;;9.36;91.43;96492.78;5021385;28;20077;-59
2023/03/31 02:12:11;;;;;;;5.32;1.20;;;;;;;9.30;92.73;96485.75;5020937;28;20137;-59
2023/03/31 02:14:42;;;;;;;5.38;1.20;;;;;;;9.30;92.69;96479.53;5021262;28;20091;-60
2023/03/31 02:17:17;;;;;;;8.95;1.35;;;;;;;9.23;93.18;96469.78;5023756;28;20115;-59
2023/03/31 02:19:47;;;;;;;3.13;0.90;;;;;;;9.09;93.84;96465.94;5021651;28;20042;-60
2023/03/31 02:22:18;;;;;;;4.10;1.20;;;;;;;9.20;92.66;96466.78;5023683;28;20120;-59
2023/03/31 02:24:47;;;;;;;6.13;1.50;;;;;;;9.08;94.79;96453.53;5021279;28;20077;-59
2023/03/31 02:27:38;;;;;;;2.00;0.82;;;;;;;9.03;95.53;96442.72;5023406;28;20048;-57
2023/03/31 02:30:06;;;;;;;5.20;1.10;;;;;;;9.02;95.16;96433.78;5019533;28;20116;-59
2023/03/31 02:32:42;;;;;;;3.03;0.90;;;;;;;9.13;94.93;96428.44;5022704;28;20088;-60
2023/03/31 02:35:13;;;;;;;4.20;1.00;;;;;;;9.10;95.33;96416.25;5023461;28;20037;-59
2023/03/31 02:37:41;;;;;;;;;;;;;;;9.16;93.78;96401.69;5022401;28;20049;-59
2023/03/31 02:40:14;;;;;;;7.20;1.90;;;;;;;9.11;93.89;96380.88;5023805;28;19947;-58
2023/03/31 02:42:42;;;;;;;4.68;1.38;;;;;;;9.14;95.23;96379.53;5008536;28;20045;-58
2023/03/31 02:45:39;;;;;;;4.20;2.03;;;;;;;9.16;95.13;96360.38;5021885;28;20046;-58
2023/03/31 02:48:29;;;;;;;7.53;1.80;;;;;;;9.12;95.62;96357.41;5017135;28;20026;-59
2023/03/31 02:51:32;;;;;;;6.72;1.25;;;;;;;9.15;95.33;96351.47;5021123;28;20072;-60
2023/03/31 02:54:12;;;;;;;6.35;1.25;;;;;;;9.12;95.90;96352.00;5018369;28;20413;-58
2023/03/31 02:57:03;;;;;;;5.93;1.83;;;;;;;9.12;96.42;96352.00;5020936;28;20049;-60
2023/03/31 02:59:42;;;;;;;5.18;1.50;;;;;;;9.17;94.64;96334.97;5022854;28;20532;-59
2023/03/31 03:02:37;;;;;;;4.32;1.20;;;;;;;9.14;94.72;96327.44;5026176;28;20087;-60
2023/03/31 03:05:26;;;;;;;7.18;1.55;;;;;;;9.07;95.88;96312.28;5025896;28;20103;-60
2023/03/31 03:08:54;;;;;;;7.10;1.55;;;;;;;9.08;95.37;96305.81;4980405;28;20060;-60
2023/03/31 03:11:34;;;;;;;3.95;1.50;;;;;;;8.94;95.23;96289.34;4990798;28;20045;-60
2023/03/31 03:14:14;;;;;;;6.10;1.77;;;;;;;8.86;96.32;96281.75;5020055;28;20041;-59
2023/03/31 03:16:47;;;;;;;5.78;2.17;;;;;;;8.79;97.16;96278.50;5024337;28;20393;-58
2023/03/31 03:19:21;;;;;;;5.72;2.25;;;;;;;8.79;96.77;96271.22;5027059;28;20107;-59
2023/03/31 03:21:47;;;;;;;4.40;1.63;;;;;;;8.72;97.38;96262.56;5026834;28;20079;-60
2023/03/31 03:24:15;;;;;;;7.93;1.70;;;;;;;8.63;98.04;96251.50;5026854;28;20080;-60
2023/03/31 03:26:43;;;;;;;7.43;2.28;;;;;;;8.56;98.63;96254.44;5027582;28;20552;-60
2023/03/31 03:29:12;;;;;;;6.25;1.75;;;;;;;8.50;100.00;96257.34;5028779;28;20130;-60
2023/03/31 03:31:38;;;;;;;5.65;1.75;;;;;;;8.46;100.00;96263.31;5026913;28;20103;-60
2023/03/31 03:34:05;;;;;;;4.53;1.70;;;;;;;8.41;100.00;96247.09;5026659;28;20045;-61
2023/03/31 03:36:32;;;;;;;4.72;1.58;;;;;;;8.33;100.00;96239.50;5022022;28;20037;-59
2023/03/31 03:38:58;;;;;;;6.40;2.13;;;;;;;8.19;100.00;96237.31;5023571;28;20460;-59
2023/03/31 03:41:25;;;;;;;5.07;1.60;;;;;;;8.18;100.00;96232.19;5027616;28;20173;-60
2023/03/31 03:43:51;;;;;;;3.95;1.90;;;;;;;8.31;100.00;96230.88;5026709;28;20072;-59
2023/03/31 03:46:18;;;;;;;5.30;1.85;;;;;;;8.31;100.00;96218.22;5027018;28;20044;-58
2023/03/31 03:48:45;;;;;;;7.60;2.33;;;;;;;8.35;100.00;96210.41;5024913;28;20555;-60
2023/03/31 03:51:11;;;;;;;8.43;2.17;;;;;;;8.31;100.00;96191.25;5022666;28;20521;-58
2023/03/31 03:53:38;;;;;;;4.80;1.90;;;;;;;8.29;100.00;96182.59;5027122;28;20072;-60
2023/03/31 03:56:04;;;;;;;5.53;2.20;;;;;;;8.26;100.00;96168.84;5026899;28;20131;-58
2023/03/31 03:58:31;;;;;;;5.07;1.98;;;;;;;8.22;100.00;96167.75;5031393;28;20124;-60
2023/03/31 04:00:58;;;;;;;5.15;2.05;;;;;;;8.12;100.00;96153.19;5028724;28;20615;-60
2023/03/31 04:03:24;;;;;;;9.77;2.38;;;;;;;8.05;100.00;96145.34;5028556;28;20112;-60
2023/03/31 04:05:51;;;;;;;5.05;1.98;;;;;;;7.92;100.00;96141.25;5025668;28;20065;-59
2023/03/31 04:08:18;;;;;;;5.60;2.10;;;;;;;8.00;100.00;96149.91;5026708;28;20121;-60
2023/03/31 04:10:47;;;;;;;5.35;1.90;;;;;;;7.87;100.00;96145.81;5029885;28;20057;-60
2023/03/31 04:13:18;;;;;;;11.38;3.22;;;;;;;7.83;100.00;96140.16;5030170;28;20037;-59
2023/03/31 04:15:45;;;;;;;6.97;2.20;;;;;;;7.81;100.00;96148.50;5022817;28;20534;-58
2023/03/31 04:18:21;;;;;;;6.68;2.67;;;;;;;7.97;100.00;96153.13;5026341;28;20048;-59
2023/03/31 04:20:53;;;;;;;6.05;3.10;;;;;;;7.96;100.00;96156.91;5027996;28;20496;-60
2023/03/31 04:23:22;;;;;;;6.28;2.50;;;;;;;8.05;100.00;96147.22;5029179;28;20046;-58
2023/03/31 04:25:51;;;;;;;8.27;2.80;;;;;;;8.01;100.00;96138.06;5026128;28;20112;-59
2023/03/31 04:28:18;;;;;;;7.50;2.45;;;;;;;8.08;100.00;96146.72;5022053;28;20049;-59
2023/03/31 04:30:45;;;;;;;6.72;2.85;;;;;;;8.14;100.00;96132.16;5023614;28;19944;-60
2023/03/31 04:33:14;;;;;;;8.45;3.00;;;;;;;8.15;100.00;96133.75;5027906;28;20084;-58
2023/03/31 04:35:51;;;;;;;4.15;2.22;;;;;;;8.22;100.00;96127.31;5024868;28;20030;-57
2023/03/31 04:38:23;;;;;;;6.90;2.33;;;;;;;8.23;100.00;96131.63;5027282;28;20428;-59
2023/03/31 04:40:52;;;;;;;7.03;2.63;;;;;;;8.19;100.00;96120.56;5025591;28;20041;-57
2023/03/31 04:43:20;;;;;;;8.98;3.20;;;;;;;8.25;100.00;96118.69;5030886;28;20033;-59
2023/03/31 04:45:46;;;;;;;6.63;2.72;;;;;;;8.28;100.00;96126.22;5024101;28;20120;-59
2023/03/31 04:48:13;;;;;;;8.60;2.90;;;;;;;8.28;100.00;96118.97;5027572;28;20040;-58
2023/03/31 04:50:39;;;;;;;6.80;2.90;;;;;;;8.38;100.00;96122.75;5022368;28;20081;-60
2023/03/31 04:53:06;;;;;;;8.63;3.70;;;;;;;8.30;100.00;96121.41;5019944;28;20448;-58
2023/03/31 04:55:33;;;;;;;9.30;4.20;;;;;;;8.28;100.00;96120.84;5020937;28;20120;-60
2023/03/31 04:58:00;;;;;;;7.45;2.85;;;;;;;8.31;100.00;96112.22;5022295;28;20119;-58
2023/03/31 05:00:27;;;;;;;9.57;2.97;;;;;;;8.14;100.00;96118.66;5020641;28;20125;-60
2023/03/31 05:02:54;;;;;;;9.65;3.05;;;;;;;8.23;100.00;96121.66;5022821;28;20120;-60
2023/03/31 05:05:21;;;;;;;5.95;2.83;;;;;;;8.27;100.00;96116.53;5016197;28;20133;-59
2023/03/31 05:07:48;;;;;;;10.25;2.90;;;;;;;8.33;100.00;96131.63;5018119;28;20112;-58
2023/03/31 05:10:14;;;;;;;8.68;3.38;;;;;;;8.27;100.00;96135.41;5020787;28;20037;-59
2023/03/31 05:12:41;;;;;;;8.82;3.42;;;;;;;8.09;100.00;96150.19;5022215;28;20140;-59
2023/03/31 05:15:08;;;;;;;12.63;4.13;;;;;;;8.08;100.00;96152.09;5022705;28;20048;-59
2023/03/31 05:17:35;;;;;;;9.45;3.78;;;;;;;8.10;100.00;96158.03;5022053;28;20045;-59
2023/03/31 05:20:08;;;;;;;10.57;4.20;;;;;;;8.23;100.00;96164.81;5022712;28;20556;-58
2023/03/31 05:22:36;;;;;;;9.23;3.92;;;;;;;8.32;100.00;96163.19;5018166;28;20049;-60
2023/03/31 05:25:05;;;;;;;9.18;3.40;;;;;;;8.35;100.00;96151.06;5021987;28;20079;-59
2023/03/31 05:27:33;;;;;;;7.07;3.35;;;;;;;8.35;100.00;96145.66;5026516;28;20039;-58
2023/03/31 05:30:00;;;;;;;9.93;4.25;;;;;;;8.28;100.00;96127.06;5026030;28;20045;-58
2023/03/31 05:32:26;;;;;;;14.60;4.20;;;;;;;8.23;100.00;96121.66;5024310;28;20037;-59
2023/03/31 05:34:56;;;;;;;9.18;5.15;;;;;;;8.28;100.00;96118.97;5025062;28;20103;-58
2023/03/31 05:37:24;;;;;;;8.93;3.90;;;;;;;8.10;100.00;96109.50;5024297;28;20037;-60
2023/03/31 05:39:51;;;;;;;9.05;4.10;;;;;;;7.96;100.00;96114.56;5023132;28;20052;-60
2023/03/31 05:42:18;;;;;;;10.88;4.32;;;;;;;7.88;100.00;96118.59;5022660;28;20120;-59
2023/03/31 05:44:45;;;;;;;9.10;4.55;;;;;;;7.94;100.00;96116.75;5023315;28;20128;-59
2023/03/31 05:47:11;;;;;;;17.77;6.03;;;;;;;7.91;100.00;96106.50;5017904;28;20046;-59
2023/03/31 05:49:38;;;;;;;9.57;3.92;;;;;;;7.91;100.00;96095.72;5021002;28;20045;-59
2023/03/31 05:52:06;;;;;;;10.60;4.45;;;;;;;7.93;100.00;96085.47;5021737;28;20061;-60
2023/03/31 05:54:32;;;;;;;11.27;4.80;;;;;;;7.92;100.00;96079.28;5019606;28;20091;-62
2023/03/31 05:56:59;;;;;;;9.10;4.78;;;;;;;7.96;100.00;96074.16;5016205;28;20492;-61
2023/03/31 05:59:26;;;;;;;10.32;4.45;;;;;;;7.97;100.00;96072.28;5030928;28;20048;-60
2023/03/31 06:01:52;;;;;;;8.90;4.40;;;;;;;7.94;100.00;96065.53;5021920;28;20160;-61
2023/03/31 06:04:19;;;;;;;12.82;4.80;;;;;;;7.91;100.00;96053.41;5018046;28;20049;-61
2023/03/31 06:06:49;;;;;;;11.70;4.95;;;;;;;7.89;100.00;96060.16;5016053;28;20041;-60
2023/03/31 06:09:16;;;;;;;11.55;4.25;;;;;;;7.75;100.00;96057.16;5026325;28;20156;-61
2023/03/31 06:11:43;;;;;;;14.52;4.95;;;;;;;7.72;100.00;96041.50;5025538;28;20560;-61
2023/03/31 06:14:09;;;;;;;12.88;5.20;;;;;;;7.77;100.00;96041.50;5029229;28;20050;-61
2023/03/31 06:16:36;;;;;;;11.52;4.10;;;;;;;7.84;100.00;96033.97;5022614;28;20069;-60
2023/03/31 06:19:02;;;;;;;12.05;4.72;;;;;;;7.96;100.00;96028.31;5027960;28;20041;-60
2023/03/31 06:21:29;;;;;;;11.02;4.75;;;;;;;7.95;100.00;96034.81;5024175;28;20050;-61
2023/03/31 06:23:57;;;;;;;11.10;4.75;;;;;;;7.92;100.00;96036.16;5025754;28;20048;-61
2023/03/31 06:26:23;;;;;;;8.02;4.35;;;;;;;7.95;100.00;96032.09;5024779;28;20048;-62
2023/03/31 06:28:50;;;;;;;8.82;4.13;;;;;;;7.99;100.00;96024.31;5025179;28;20441;-60
2023/03/31 06:31:20;;;;;;;9.68;5.25;;;;;;;8.03;100.00;96026.19;5028100;28;20089;-61
2023/03/31 06:33:47;;;;;;;10.93;4.53;;;;;;;8.09;100.00;96018.91;5022661;28;20037;-61
2023/03/31 06:36:16;;;;;;;8.73;4.30;;;;;;;8.18;100.00;96020.00;5022697;28;20685;-60
2023/03/31 06:38:43;;;;;;;9.45;4.20;;;;;;;8.26;100.00;96025.94;5027436;28;20056;-60
2023/03/31 06:41:12;;;;;;;11.95;3.83;;;;;;;8.35;100.00;96031.56;5027911;28;20045;-61
2023/03/31 06:43:38;;;;;;;11.02;3.85;;;;;;;8.43;100.00;96031.03;5021330;28;20065;-60
2023/03/31 06:46:05;;;;;;;11.43;4.53;;;;;;;8.26;100.00;96048.28;5020937;28;20659;-60
2023/03/31 06:48:33;;;;;;;9.00;4.60;;;;;;;8.25;100.00;96043.19;5020885;28;20152;-60
2023/03/31 06:51:01;;;;;;;14.00;5.53;;;;;;;8.24;100.00;96065.81;5031431;28;20080;-61
2023/03/31 06:53:28;;;;;;;14.07;4.35;;;;;;;8.45;100.00;96072.84;5022917;28;20113;-59
2023/03/31 06:55:55;;;;;;;11.32;4.93;;;;;;;8.18;100.00;96079.31;5026157;28;20537;-60
2023/03/31 06:58:22;;;;;;;8.90;4.05;;;;;;;8.28;100.00;96081.22;5023008;28;20037;-60
2023/03/31 07:00:49;;;;;;;9.18;4.35;;;;;;;8.30;100.00;96087.13;5026502;28;20037;-59
2023/03/31 07:03:17;;;;;;;12.50;4.43;;;;;;;8.35;100.00;96080.94;5024436;28;20670;-59
2023/03/31 07:05:49;;;;;;;9.02;4.03;;;;;;;8.35;100.00;96020.78;5021163;28;20117;-60
2023/03/31 07:08:19;;;;;;;12.32;4.32;;;;;;;8.25;100.00;96022.41;5029033;28;20041;-61
2023/03/31 07:10:47;;;;;;;9.93;3.95;;;;;;;8.24;100.00;96004.63;5020965;28;20574;-61
2023/03/31 07:13:15;;;;;;;8.85;3.75;;;;;;;8.33;100.00;95992.19;5024625;28;20515;-59
2023/03/31 07:15:43;;;;;;;9.02;4.05;;;;;;;8.32;100.00;95984.38;5026880;28;20049;-60
2023/03/31 07:18:11;;;;;;;12.77;4.38;;;;;;;8.33;100.00;95994.06;5032588;28;20041;-61
2023/03/31 07:20:37;;;;;;;10.05;3.42;;;;;;;8.31;100.00;95997.06;5023629;28;20107;-61
2023/03/31 07:23:05;;;;;;;8.07;3.13;;;;;;;8.37;100.00;95991.66;5030546;28;20464;-58
2023/03/31 07:25:31;;;;;;;10.50;4.13;;;;;;;8.34;100.00;96011.91;5018309;28;20049;-59
2023/03/31 07:27:58;;;;;;;7.40;2.70;;;;;;;8.35;100.00;95993.81;5016391;28;20533;-59
2023/03/31 07:30:25;;;;;;;6.03;3.05;;;;;;;8.38;100.00;96006.75;5025432;28;20041;-56
2023/03/31 07:32:51;;;;;;;5.65;2.20;;;;;;;8.49;100.00;95996.78;5029684;28;20049;-58
2023/03/31 07:35:19;;;;;;;6.43;2.13;;;;;;;8.73;100.00;95975.41;5027411;28;20042;-59
2023/03/31 07:37:47;;;;;;;5.25;2.00;;;;;;;8.94;100.00;95975.34;5022376;28;20041;-61
2023/03/31 07:40:16;;;;;;;6.00;2.10;;;;;;;9.03;100.00;95987.19;5021543;28;20033;-59
2023/03/31 07:42:43;;;;;;;3.00;1.50;;;;;;;9.11;100.00;95985.84;5025048;28;20050;-58
2023/03/31 07:45:15;;;;;;;3.50;1.50;;;;;;;9.21;100.00;95980.38;5029963;28;20040;-59
2023/03/31 07:47:45;;;;;;;4.65;1.42;;;;;;;9.33;100.00;95984.66;5031789;28;20136;-57
2023/03/31 07:50:13;;;;;;;4.85;1.80;;;;;;;9.40;100.00;95984.34;5032472;28;20061;-60
2023/03/31 07:52:40;;;;;;;3.83;1.45;;;;;;;9.46;100.00;95977.81;5027310;28;20071;-57
2023/03/31 07:55:11;;;;;;;3.88;1.42;;;;;;;9.53;100.00;95983.72;5028386;28;20029;-59
2023/03/31 07:57:39;;;;;;;2.63;1.30;;;;;;;9.68;100.00;95979.28;5025413;28;20116;-61
2023/03/31 08:00:11;;;;;;;2.85;1.10;;;;;;;9.71;100.00;95978.75;5023695;28;20069;-61
2023/03/31 08:02:40;;;;;;;2.05;0.93;;;;;;;9.79;100.00;95986.25;5017059;28;20077;-59
2023/03/31 08:05:07;;;;;;;5.10;1.38;;;;;;;9.95;100.00;95984.25;5035333;28;20034;-60
2023/03/31 08:07:35;;;;;;;3.42;1.10;;;;;;;10.10;98.06;95990.63;5025371;28;20069;-58
2023/03/31 08:10:05;;;;;;;4.68;1.60;;;;;;;10.20;99.19;95979.72;5029944;28;20119;-58
2023/03/31 08:12:32;;;;;;;4.53;1.08;;;;;;;10.28;97.75;95978.28;5028924;28;20068;-60
2023/03/31 08:14:58;;;;;;;4.80;1.30;;;;;;;10.25;97.00;95968.06;5032989;28;20061;-56
2023/03/31 08:17:25;;;;;;;4.07;1.30;;;;;;;10.37;96.91;95975.78;5030812;28;20033;-59
2023/03/31 08:19:51;;;;;;;4.70;1.08;;;;;;;10.55;97.64;95963.47;5025471;28;20049;-60
2023/03/31 08:22:18;;;;;;;5.65;1.45;;;;;;;10.77;97.07;95964.88;5029532;28;20056;-59
2023/03/31 08:24:45;;;;;;;3.35;0.90;;;;;;;10.85;94.57;95971.53;5026559;28;20034;-61
2023/03/31 08:27:12;;;;;;;3.95;1.25;;;;;;;11.05;95.39;95970.50;5025271;28;20056;-62
2023/03/31 08:29:38;;;;;;;4.32;1.13;;;;;;;11.12;96.73;95959.28;5027698;28;20080;-58
2023/03/31 08:32:05;;;;;;;4.97;1.23;;;;;;;11.33;94.96;95970.69;5025827;28;20062;-61
2023/03/31 08:34:32;;;;;;;3.53;1.30;;;;;;;11.49;95.12;95963.16;5028787;28;20041;-61
2023/03/31 08:36:59;;;;;;;4.90;1.10;;;;;;;11.58;93.85;95953.25;5012770;28;20132;-62
2023/03/31 08:39:26;;;;;;;3.92;1.00;;;;;;;11.53;89.18;95953.34;5025846;28;20073;-62
2023/03/31 08:42:02;;;;;;;4.70;0.98;;;;;;;11.68;89.54;95960.44;5026315;28;20041;-61
2023/03/31 08:44:36;;;;;;;6.95;1.25;;;;;;;11.95;89.15;95956.22;5025301;28;20073;-61
2023/03/31 08:47:08;;;;;;;5.68;1.23;;;;;;;12.21;88.47;95971.31;5027003;28;20107;-61
2023/03/31 08:49:46;;;;;;;7.05;1.65;;;;;;;12.04;82.38;95979.97;5024268;28;20455;-58
2023/03/31 08:52:23;;;;;;;4.45;1.15;;;;;;;11.80;84.66;95959.19;5033256;28;20045;-62
2023/03/31 08:54:55;;;;;;;4.78;1.20;;;;;;;11.52;84.37;95957.16;5024140;28;20045;-61
2023/03/31 08:57:27;;;;;;;3.47;0.80;;;;;;;11.62;84.27;95953.50;5025927;28;20606;-62
2023/03/31 08:59:57;;;;;;;5.30;1.30;;;;;;;11.81;83.80;95955.38;5028830;28;20435;-62
2023/03/31 09:02:35;;;;;;;6.97;1.25;;;;;;;11.81;81.87;95953.47;5027419;28;20045;-63
2023/03/31 09:05:24;;;;;;;6.95;1.25;;;;;;;11.82;83.18;95971.34;5030928;28;20132;-62
2023/03/31 09:07:58;;;;;;;4.55;1.38;;;;;;;11.69;81.17;95962.03;5025381;28;20080;-62
2023/03/31 09:10:53;;;;;;;2.10;0.77;;;;;;;11.88;81.26;95936.84;5025278;28;20042;-62
2023/03/31 09:13:54;;;;;;;2.60;0.70;;;;;;;12.00;81.53;95993.31;5026333;28;20045;-58
2023/03/31 09:17:10;;;;;;;5.57;0.95;;;;;;;12.00;77.65;95941.78;5033491;28;20095;-60
2023/03/31 09:20:08;;;;;;;4.25;0.95;;;;;;;12.28;76.21;95943.81;5016337;28;20609;-62
2023/03/31 09:22:41;;;;;;;3.50;1.15;;;;;;;12.36;76.49;95951.25;5033451;28;20044;-63
2023/03/31 09:25:12;;;;;;;3.25;0.73;;;;;;;12.20;74.46;95943.38;5015866;28;20136;-62
2023/03/31 09:27:42;;;;;;;4.68;1.55;;;;;;;12.19;70.68;95930.09;5027100;28;20041;-60
2023/03/31 09:30:20;;;;;;;7.32;1.40;;;;;;;12.15;73.33;95923.66;5027631;28;20688;-60
2023/03/31 09:32:51;;;;;;;5.05;1.00;;;;;;;12.29;71.74;95938.06;5023794;28;20132;-60
2023/03/31 09:35:24;;;;;;;7.45;1.40;;;;;;;12.44;68.07;95925.31;5034541;28;20259;-59
2023/03/31 09:37:52;;;;;;;5.13;0.93;;;;;;;12.44;67.23;95920.72;5025741;28;20100;-59
2023/03/31 09:40:22;;;;;;;4.75;0.98;;;;;;;12.42;64.81;95900.41;5031184;28;20123;-59
2023/03/31 09:43:00;;;;;;;7.53;1.33;;;;;;;12.19;69.24;95911.09;5027647;28;20532;-62
2023/03/31 09:45:27;;;;;;;3.42;1.05;;;;;;;12.21;69.92;95889.91;5024344;28;20053;-62
2023/03/31 09:47:57;;;;;;;6.95;2.10;;;;;;;12.09;68.08;95891.19;5028338;28;20395;-61
2023/03/31 09:50:26;;;;;;;9.30;1.33;;;;;;;12.52;69.86;95893.94;5035662;28;20479;-62
2023/03/31 09:52:57;;;;;;;6.25;1.40;;;;;;;12.61;65.84;95868.50;5025064;28;20042;-62
2023/03/31 09:55:42;;;;;;;5.88;1.30;;;;;;;12.53;65.55;95874.66;5028754;28;20106;-61
2023/03/31 09:58:13;;;;;;;5.30;1.13;;;;;;;12.59;63.86;95888.94;5026107;28;20504;-61
2023/03/31 10:00:43;;;;;;;4.70;1.08;;;;;;;12.81;62.82;95893.66;5028874;28;20045;-61
2023/03/31 10:03:12;;;;;;;7.72;1.90;;;;;;;13.15;66.67;95891.59;5025644;28;20041;-62
2023/03/31 10:05:50;;;;;;;4.35;0.90;;;;;;;13.29;63.11;95880.69;5027217;28;20060;-61
2023/03/31 10:08:16;;;;;;;4.10;1.08;;;;;;;13.21;63.17;95881.41;5029363;28;20045;-62
2023/03/31 10:10:54;;;;;;;7.25;1.95;;;;;;;13.27;64.02;95882.94;5022206;28;20099;-57
2023/03/31 10:13:28;;;;;;;10.52;1.90;;;;;;;13.35;63.98;95868.59;5019240;28;20087;-62
2023/03/31 10:16:02;;;;;;;6.72;1.25;;;;;;;13.42;62.37;95872.81;5024084;28;20042;-60
2023/03/31 10:18:38;;;;;;;6.07;1.20;;;;;;;13.46;62.18;95869.19;5024303;28;20049;-60
2023/03/31 10:21:14;;;;;;;4.47;1.38;;;;;;;13.44;61.14;95870.56;5026534;28;20114;-60
2023/03/31 10:23:45;;;;;;;7.47;1.70;;;;;;;12.96;62.43;95845.53;5022131;28;20176;-61
2023/03/31 10:26:17;;;;;;;5.32;1.30;;;;;;;12.72;63.72;95869.13;5028834;28;20049;-60
2023/03/31 10:28:44;;;;;;;;;;;;;;;12.64;63.82;95880.69;5027236;28;20056;-60
2023/03/31 10:31:11;;;;;;;11.13;1.33;;;;;;;12.62;69.99;95866.63;5031427;28;20305;-60
2023/03/31 10:33:47;;;;;;;4.07;1.02;;;;;;;12.39;67.67;95873.84;5023219;28;20043;-60
2023/03/31 10:36:17;;;;;;;3.80;1.05;;;;;;;11.96;67.91;95872.97;5026993;28;20037;-60
2023/03/31 10:38:46;;;;;;;3.38;0.88;;;;;;;12.03;69.44;95851.69;5025295;28;20060;-59
2023/03/31 10:41:19;;;;;;;6.93;1.05;;;;;;;12.15;70.18;95851.22;5023535;28;20064;-63
2023/03/31 10:43:52;;;;;;;7.20;1.17;;;;;;;12.41;69.09;95852.63;5027007;28;20123;-60
2023/03/31 10:46:19;;;;;;;4.00;1.10;;;;;;;12.40;67.97;95843.69;5023762;28;20045;-60
2023/03/31 10:48:46;;;;;;;8.93;2.05;;;;;;;12.68;67.16;95842.88;5030089;28;20148;-60
2023/03/31 10:51:17;;;;;;;4.45;0.80;;;;;;;13.00;66.90;95846.53;5028294;28;20052;-59
2023/03/31 10:53:51;;;;;;;4.90;1.17;;;;;;;12.73;65.25;95849.03;5028373;28;20069;-61
2023/03/31 10:56:35;;;;;;;7.78;1.23;;;;;;;12.57;64.67;95851.22;5033494;28;20581;-60
2023/03/31 10:59:36;;;;;;;5.05;0.90;;;;;;;12.64;63.62;95836.44;5025979;28;20048;-59
2023/03/31 11:02:12;;;;;;;7.53;1.13;;;;;;;12.14;68.21;95859.66;5016770;28;20037;-60
2023/03/31 11:04:45;;;;;;;9.10;1.45;;;;;;;10.99;79.25;95890.41;5020696;28;20396;-60
2023/03/31 11:07:46;;;;;;;5.72;0.85;;;;;;;10.23;81.94;95906.13;5023168;28;20076;-60
2023/03/31 11:10:43;;;;;;;5.13;1.10;;;;;;;9.14;96.16;95933.94;5022001;28;20099;-60
2023/03/31 11:13:32;;;;;;;3.42;0.50;;;;;;;8.37;100.00;95952.00;5022828;28;20099;-60
2023/03/31 11:16:14;;;;;;;3.20;0.50;;;;;;;7.71;100.00;95983.31;5016117;28;20606;-59
2023/03/31 11:18:56;;;;;;;3.60;0.43;;;;;;;7.50;100.00;95975.19;5021961;28;20128;-60
2023/03/31 11:21:23;;;;;;;;;;;;;;;7.47;100.00;95975.72;5032495;28;20045;-62
2023/03/31 11:24:11;;;;;;;2.17;0.40;;;;;;;7.37;100.00;95977.31;5025643;28;21078;-62
2023/03/31 11:26:49;;;;;;;1.45;0.40;;;;;;;7.29;100.00;95970.56;5024977;28;20660;-62
2023/03/31 11:29:55;;;;;;;1.95;0.40;;;;;;;7.39;100.00;95968.97;5032299;28;20041;-62
2023/03/31 11:32:40;;;;;;;1.15;0.40;;;;;;;7.42;100.00;95957.69;5031491;28;20036;-62
2023/03/31 11:35:16;;;;;;;2.88;0.40;;;;;;;7.51;100.00;95950.69;5034307;28;20499;-62
2023/03/31 11:38:00;;;;;;;1.33;0.63;;;;;;;7.59;100.00;95952.03;5030454;28;20041;-62
2023/03/31 11:40:26;;;;;;;1.45;0.30;;;;;;;7.72;100.00;95949.91;5033116;28;20049;-62
2023/03/31 11:43:11;;;;;;;1.35;0.45;;;;;;;7.79;100.00;95956.66;5034334;28;20052;-62
2023/03/31 11:45:42;;;;;;;2.40;0.50;;;;;;;7.82;100.00;95931.06;5029174;28;20714;-62
2023/03/31 11:48:31;;;;;;;1.35;0.40;;;;;;;7.86;100.00;95931.31;5030823;28;20033;-61
2023/03/31 11:51:00;;;;;;;1.85;0.38;;;;;;;7.85;100.00;95924.31;5028678;28;20628;-62
2023/03/31 11:53:32;;;;;;;1.83;0.57;;;;;;;8.00;100.00;95910.81;5029517;28;20049;-61
2023/03/31 11:56:01;;;;;;;0.88;0.38;;;;;;;8.27;100.00;95898.09;5029278;28;20072;-58
2023/03/31 11:58:51;;;;;;;2.35;0.40;;;;;;;8.63;100.00;95908.00;5030138;28;20037;-59
2023/03/31 12:01:28;;;;;;;1.08;0.57;;;;;;;8.71;100.00;95897.44;5028592;28;20115;-60